If you wish to contribute or participate in the discussions about articles you are invited to join SKYbrary as a registered user

 Actions

Capitan FAP Pedro Canga Rodriguez Airport

From SKYbrary Wiki

SPME
Airport
ICAO: SPME – IATA: TBP
Summary
Name Capitan FAP Pedro Canga Rodriguez Airport
Region South America and Caribbean
Territory Peru PE.gif
Location Tumbes, Tumbes
Serving Tumbes
Elevation 35.052 m
115 ft
115 ft35.052 m
Type medium airport
Coordinates 3° 33' 9.10" S, 80° 22' 52.88" W
Runways
Designator Length Width Surface ROPS
14/32 2500 m8,202.1 ft
45 m147.638 ft
ASP /


METAR
Observation SPME 181600Z 32003KT 9999 BKN013 23/20 Q1015 RMK BIRD HAZARD RWY 32/14 PP000
Station Tumbes
Date/Time 18 October 2019 16:00:00
Wind direction 320°
Wind speed 03 kts
Lowest cloud amount broken clouds
Temperature 23°C
Dew point 20°C
Humidity 83%
QNH 1015 hPa
Weather condition n/a

Airport serving Tumbes, Peru. It is the main airport of the Tumbes Region.

Climatology

Warm Desert climate (Köppen climate classification BWh).

Maps

Terrain

Loading map...

Airport Layout

Loading map...


Accidents & Serious Incidents at or in vicinity of SPME

None on SKYbrary